sensor_id;sensor_type;location;lat;lon;timestamp;P1;durP1;ratioP1;P2;durP2;ratioP2
5585;SDS011;2815;54.094;12.112;2023-05-13T00:01:17;5.90;;;3.97;;
5585;SDS011;2815;54.094;12.112;2023-05-13T00:03:46;7.30;;;3.58;;
5585;SDS011;2815;54.094;12.112;2023-05-13T00:06:14;6.32;;;4.05;;
5585;SDS011;2815;54.094;12.112;2023-05-13T00:08:42;6.32;;;3.90;;
5585;SDS011;2815;54.094;12.112;2023-05-13T00:11:11;6.55;;;4.20;;
5585;SDS011;2815;54.094;12.112;2023-05-13T00:13:38;9.07;;;4.10;;
5585;SDS011;2815;54.094;12.112;2023-05-13T00:16:06;9.45;;;3.55;;
5585;SDS011;2815;54.094;12.112;2023-05-13T00:18:34;6.32;;;3.72;;
5585;SDS011;2815;54.094;12.112;2023-05-13T00:21:04;5.47;;;3.72;;
5585;SDS011;2815;54.094;12.112;2023-05-13T00:23:32;5.65;;;3.85;;
5585;SDS011;2815;54.094;12.112;2023-05-13T00:26:00;7.18;;;4.00;;
5585;SDS011;2815;54.094;12.112;2023-05-13T00:28:27;6.60;;;4.18;;
5585;SDS011;2815;54.094;12.112;2023-05-13T00:30:55;8.48;;;4.68;;
5585;SDS011;2815;54.094;12.112;2023-05-13T00:33:23;8.27;;;4.05;;
5585;SDS011;2815;54.094;12.112;2023-05-13T00:35:51;6.63;;;4.40;;
5585;SDS011;2815;54.094;12.112;2023-05-13T00:38:21;8.95;;;4.40;;
5585;SDS011;2815;54.094;12.112;2023-05-13T00:40:49;8.82;;;4.47;;
5585;SDS011;2815;54.094;12.112;2023-05-13T00:43:17;6.32;;;4.18;;
5585;SDS011;2815;54.094;12.112;2023-05-13T00:45:45;6.35;;;4.18;;
5585;SDS011;2815;54.094;12.112;2023-05-13T00:48:13;6.35;;;4.10;;
5585;SDS011;2815;54.094;12.112;2023-05-13T00:50:41;8.02;;;4.68;;
5585;SDS011;2815;54.094;12.112;2023-05-13T00:53:10;6.72;;;3.92;;
5585;SDS011;2815;54.094;12.112;2023-05-13T00:55:41;5.63;;;3.92;;
5585;SDS011;2815;54.094;12.112;2023-05-13T00:58:09;8.02;;;4.43;;
5585;SDS011;2815;54.094;12.112;2023-05-13T01:00:38;8.70;;;4.63;;
5585;SDS011;2815;54.094;12.112;2023-05-13T01:03:11;9.07;;;4.57;;
5585;SDS011;2815;54.094;12.112;2023-05-13T01:05:42;7.45;;;4.28;;
5585;SDS011;2815;54.094;12.112;2023-05-13T01:08:19;8.73;;;4.32;;
5585;SDS011;2815;54.094;12.112;2023-05-13T01:10:54;7.55;;;4.50;;
5585;SDS011;2815;54.094;12.112;2023-05-13T01:13:25;7.57;;;4.65;;
5585;SDS011;2815;54.094;12.112;2023-05-13T01:15:56;5.97;;;4.55;;
5585;SDS011;2815;54.094;12.112;2023-05-13T01:18:32;7.25;;;4.88;;
5585;SDS011;2815;54.094;12.112;2023-05-13T01:21:04;7.00;;;4.80;;
5585;SDS011;2815;54.094;12.112;2023-05-13T01:23:34;9.90;;;4.97;;
5585;SDS011;2815;54.094;12.112;2023-05-13T01:26:03;8.15;;;4.85;;
5585;SDS011;2815;54.094;12.112;2023-05-13T01:28:32;6.30;;;4.28;;
5585;SDS011;2815;54.094;12.112;2023-05-13T01:31:01;7.25;;;5.00;;
5585;SDS011;2815;54.094;12.112;2023-05-13T01:33:29;8.10;;;4.78;;
5585;SDS011;2815;54.094;12.112;2023-05-13T01:35:57;10.57;;;4.88;;
5585;SDS011;2815;54.094;12.112;2023-05-13T01:38:25;10.45;;;4.93;;
5585;SDS011;2815;54.094;12.112;2023-05-13T01:40:58;8.98;;;4.85;;
5585;SDS011;2815;54.094;12.112;2023-05-13T01:43:28;6.95;;;4.82;;
5585;SDS011;2815;54.094;12.112;2023-05-13T01:45:56;10.70;;;5.07;;
5585;SDS011;2815;54.094;12.112;2023-05-13T01:48:26;9.02;;;5.00;;
5585;SDS011;2815;54.094;12.112;2023-05-13T01:50:54;8.48;;;4.70;;
5585;SDS011;2815;54.094;12.112;2023-05-13T01:53:22;7.22;;;4.93;;
5585;SDS011;2815;54.094;12.112;2023-05-13T01:55:51;8.05;;;4.57;;
5585;SDS011;2815;54.094;12.112;2023-05-13T01:58:21;11.45;;;5.50;;
5585;SDS011;2815;54.094;12.112;2023-05-13T02:00:49;8.30;;;5.40;;
5585;SDS011;2815;54.094;12.112;2023-05-13T02:03:17;7.00;;;4.53;;
5585;SDS011;2815;54.094;12.112;2023-05-13T02:05:45;8.65;;;5.15;;
5585;SDS011;2815;54.094;12.112;2023-05-13T02:08:13;10.45;;;5.07;;
5585;SDS011;2815;54.094;12.112;2023-05-13T02:10:41;11.77;;;5.15;;
5585;SDS011;2815;54.094;12.112;2023-05-13T02:13:09;9.40;;;4.82;;
5585;SDS011;2815;54.094;12.112;2023-05-13T02:15:39;10.32;;;5.00;;
5585;SDS011;2815;54.094;12.112;2023-05-13T02:18:07;8.93;;;4.82;;
5585;SDS011;2815;54.094;12.112;2023-05-13T02:20:35;7.63;;;5.25;;
5585;SDS011;2815;54.094;12.112;2023-05-13T02:23:03;7.00;;;4.68;;
5585;SDS011;2815;54.094;12.112;2023-05-13T02:25:32;9.77;;;5.20;;
5585;SDS011;2815;54.094;12.112;2023-05-13T02:28:00;10.07;;;5.22;;
5585;SDS011;2815;54.094;12.112;2023-05-13T02:30:28;9.20;;;5.00;;
5585;SDS011;2815;54.094;12.112;2023-05-13T02:32:58;10.00;;;5.18;;
5585;SDS011;2815;54.094;12.112;2023-05-13T02:35:27;9.15;;;5.18;;
5585;SDS011;2815;54.094;12.112;2023-05-13T02:37:58;10.90;;;5.22;;
5585;SDS011;2815;54.094;12.112;2023-05-13T02:40:27;11.68;;;5.35;;
5585;SDS011;2815;54.094;12.112;2023-05-13T02:42:55;10.52;;;5.70;;
5585;SDS011;2815;54.094;12.112;2023-05-13T02:45:36;8.90;;;5.15;;
5585;SDS011;2815;54.094;12.112;2023-05-13T02:48:06;8.85;;;4.88;;
5585;SDS011;2815;54.094;12.112;2023-05-13T02:50:34;10.80;;;5.25;;
5585;SDS011;2815;54.094;12.112;2023-05-13T02:53:02;8.48;;;5.40;;
5585;SDS011;2815;54.094;12.112;2023-05-13T02:55:32;9.82;;;5.40;;
5585;SDS011;2815;54.094;12.112;2023-05-13T02:58:00;11.40;;;5.35;;
5585;SDS011;2815;54.094;12.112;2023-05-13T03:00:27;10.35;;;5.00;;
5585;SDS011;2815;54.094;12.112;2023-05-13T03:02:55;6.60;;;4.75;;
5585;SDS011;2815;54.094;12.112;2023-05-13T03:05:25;9.40;;;5.25;;
5585;SDS011;2815;54.094;12.112;2023-05-13T03:07:55;12.65;;;5.22;;
5585;SDS011;2815;54.094;12.112;2023-05-13T03:10:24;7.72;;;5.07;;
5585;SDS011;2815;54.094;12.112;2023-05-13T03:12:52;10.18;;;5.30;;
5585;SDS011;2815;54.094;12.112;2023-05-13T03:15:20;12.07;;;5.45;;
5585;SDS011;2815;54.094;12.112;2023-05-13T03:17:48;12.20;;;5.40;;
5585;SDS011;2815;54.094;12.112;2023-05-13T03:20:18;9.23;;;4.78;;
5585;SDS011;2815;54.094;12.112;2023-05-13T03:22:48;9.15;;;5.22;;
5585;SDS011;2815;54.094;12.112;2023-05-13T03:25:16;9.65;;;5.28;;
5585;SDS011;2815;54.094;12.112;2023-05-13T03:27:49;7.85;;;5.18;;
5585;SDS011;2815;54.094;12.112;2023-05-13T03:30:20;8.30;;;4.80;;
5585;SDS011;2815;54.094;12.112;2023-05-13T03:32:56;8.52;;;4.93;;
5585;SDS011;2815;54.094;12.112;2023-05-13T03:35:25;7.90;;;5.18;;
5585;SDS011;2815;54.094;12.112;2023-05-13T03:37:54;8.73;;;5.07;;
5585;SDS011;2815;54.094;12.112;2023-05-13T03:40:23;9.05;;;5.28;;
5585;SDS011;2815;54.094;12.112;2023-05-13T03:42:51;10.80;;;5.15;;
5585;SDS011;2815;54.094;12.112;2023-05-13T03:45:21;12.18;;;5.20;;
5585;SDS011;2815;54.094;12.112;2023-05-13T03:47:52;11.10;;;5.15;;
5585;SDS011;2815;54.094;12.112;2023-05-13T03:50:22;10.55;;;5.53;;
5585;SDS011;2815;54.094;12.112;2023-05-13T03:52:52;9.82;;;5.18;;
5585;SDS011;2815;54.094;12.112;2023-05-13T03:55:22;10.25;;;4.93;;
5585;SDS011;2815;54.094;12.112;2023-05-13T03:57:50;12.35;;;5.50;;
5585;SDS011;2815;54.094;12.112;2023-05-13T04:00:19;9.23;;;4.90;;
5585;SDS011;2815;54.094;12.112;2023-05-13T04:02:49;8.82;;;4.78;;
5585;SDS011;2815;54.094;12.112;2023-05-13T04:05:17;9.20;;;5.18;;
5585;SDS011;2815;54.094;12.112;2023-05-13T04:07:46;9.65;;;5.30;;
5585;SDS011;2815;54.094;12.112;2023-05-13T04:10:15;8.98;;;5.05;;
5585;SDS011;2815;54.094;12.112;2023-05-13T04:12:44;8.00;;;5.20;;
5585;SDS011;2815;54.094;12.112;2023-05-13T04:15:12;9.48;;;6.07;;
5585;SDS011;2815;54.094;12.112;2023-05-13T04:17:40;9.45;;;5.05;;
5585;SDS011;2815;54.094;12.112;2023-05-13T04:20:08;9.07;;;5.45;;
5585;SDS011;2815;54.094;12.112;2023-05-13T04:22:37;7.22;;;5.03;;
5585;SDS011;2815;54.094;12.112;2023-05-13T04:25:05;7.43;;;4.75;;
5585;SDS011;2815;54.094;12.112;2023-05-13T04:27:34;10.25;;;5.30;;
5585;SDS011;2815;54.094;12.112;2023-05-13T04:30:10;11.82;;;5.20;;
5585;SDS011;2815;54.094;12.112;2023-05-13T04:32:40;8.13;;;4.93;;
5585;SDS011;2815;54.094;12.112;2023-05-13T04:35:09;8.73;;;4.78;;
5585;SDS011;2815;54.094;12.112;2023-05-13T04:37:39;9.25;;;4.88;;
5585;SDS011;2815;54.094;12.112;2023-05-13T04:40:11;12.05;;;4.90;;
5585;SDS011;2815;54.094;12.112;2023-05-13T04:42:39;11.02;;;4.70;;
5585;SDS011;2815;54.094;12.112;2023-05-13T04:45:09;8.75;;;5.15;;
5585;SDS011;2815;54.094;12.112;2023-05-13T04:47:38;6.40;;;4.47;;
5585;SDS011;2815;54.094;12.112;2023-05-13T04:50:06;10.55;;;5.70;;
5585;SDS011;2815;54.094;12.112;2023-05-13T04:52:36;8.40;;;4.88;;
5585;SDS011;2815;54.094;12.112;2023-05-13T04:55:04;8.57;;;4.68;;
5585;SDS011;2815;54.094;12.112;2023-05-13T04:57:32;10.63;;;5.25;;
5585;SDS011;2815;54.094;12.112;2023-05-13T05:00:00;8.95;;;4.88;;
5585;SDS011;2815;54.094;12.112;2023-05-13T05:02:33;9.20;;;4.80;;
5585;SDS011;2815;54.094;12.112;2023-05-13T05:05:01;13.18;;;4.55;;
5585;SDS011;2815;54.094;12.112;2023-05-13T05:07:29;8.93;;;4.70;;
5585;SDS011;2815;54.094;12.112;2023-05-13T05:09:57;8.77;;;4.32;;
5585;SDS011;2815;54.094;12.112;2023-05-13T05:12:28;5.95;;;3.83;;
5585;SDS011;2815;54.094;12.112;2023-05-13T05:14:57;9.07;;;4.30;;
5585;SDS011;2815;54.094;12.112;2023-05-13T05:17:26;8.38;;;3.75;;
5585;SDS011;2815;54.094;12.112;2023-05-13T05:20:02;6.88;;;4.20;;
5585;SDS011;2815;54.094;12.112;2023-05-13T05:22:30;5.78;;;4.28;;
5585;SDS011;2815;54.094;12.112;2023-05-13T05:25:00;9.43;;;4.07;;
5585;SDS011;2815;54.094;12.112;2023-05-13T05:27:29;7.78;;;4.10;;
5585;SDS011;2815;54.094;12.112;2023-05-13T05:29:56;9.70;;;4.47;;
5585;SDS011;2815;54.094;12.112;2023-05-13T05:32:24;7.30;;;4.70;;
5585;SDS011;2815;54.094;12.112;2023-05-13T05:34:53;7.63;;;4.07;;
5585;SDS011;2815;54.094;12.112;2023-05-13T05:37:22;7.18;;;3.95;;
5585;SDS011;2815;54.094;12.112;2023-05-13T05:39:50;7.75;;;4.10;;
5585;SDS011;2815;54.094;12.112;2023-05-13T05:42:18;6.05;;;3.58;;
5585;SDS011;2815;54.094;12.112;2023-05-13T05:44:46;4.97;;;3.47;;
5585;SDS011;2815;54.094;12.112;2023-05-13T05:47:14;12.15;;;3.55;;
5585;SDS011;2815;54.094;12.112;2023-05-13T05:49:42;8.18;;;3.58;;
5585;SDS011;2815;54.094;12.112;2023-05-13T05:52:10;6.15;;;3.50;;
5585;SDS011;2815;54.094;12.112;2023-05-13T05:54:40;7.30;;;3.22;;
5585;SDS011;2815;54.094;12.112;2023-05-13T05:57:08;6.65;;;3.85;;
5585;SDS011;2815;54.094;12.112;2023-05-13T05:59:36;7.57;;;4.32;;
5585;SDS011;2815;54.094;12.112;2023-05-13T06:02:04;9.57;;;4.38;;
5585;SDS011;2815;54.094;12.112;2023-05-13T06:04:32;9.23;;;3.80;;
5585;SDS011;2815;54.094;12.112;2023-05-13T06:07:00;6.13;;;3.67;;
5585;SDS011;2815;54.094;12.112;2023-05-13T06:09:28;5.68;;;3.40;;
5585;SDS011;2815;54.094;12.112;2023-05-13T06:11:58;8.95;;;3.60;;
5585;SDS011;2815;54.094;12.112;2023-05-13T06:14:26;7.00;;;3.30;;
5585;SDS011;2815;54.094;12.112;2023-05-13T06:16:54;6.35;;;3.58;;
5585;SDS011;2815;54.094;12.112;2023-05-13T06:19:22;6.38;;;3.20;;
5585;SDS011;2815;54.094;12.112;2023-05-13T06:21:50;8.35;;;3.95;;
5585;SDS011;2815;54.094;12.112;2023-05-13T06:24:18;6.50;;;3.45;;
5585;SDS011;2815;54.094;12.112;2023-05-13T06:26:46;5.43;;;3.05;;
5585;SDS011;2815;54.094;12.112;2023-05-13T06:29:15;9.80;;;3.60;;
5585;SDS011;2815;54.094;12.112;2023-05-13T06:31:43;4.80;;;3.65;;
5585;SDS011;2815;54.094;12.112;2023-05-13T06:34:11;6.78;;;3.50;;
5585;SDS011;2815;54.094;12.112;2023-05-13T06:36:42;6.22;;;3.13;;
5585;SDS011;2815;54.094;12.112;2023-05-13T06:39:10;5.30;;;3.20;;
5585;SDS011;2815;54.094;12.112;2023-05-13T06:41:39;8.43;;;3.58;;
5585;SDS011;2815;54.094;12.112;2023-05-13T06:44:11;6.35;;;3.47;;
5585;SDS011;2815;54.094;12.112;2023-05-13T06:46:45;8.05;;;3.33;;
5585;SDS011;2815;54.094;12.112;2023-05-13T06:49:13;10.07;;;3.30;;
5585;SDS011;2815;54.094;12.112;2023-05-13T06:51:41;8.52;;;3.35;;
5585;SDS011;2815;54.094;12.112;2023-05-13T06:54:09;10.02;;;3.83;;
5585;SDS011;2815;54.094;12.112;2023-05-13T06:56:39;4.85;;;2.92;;
5585;SDS011;2815;54.094;12.112;2023-05-13T06:59:07;7.35;;;3.47;;
5585;SDS011;2815;54.094;12.112;2023-05-13T07:01:35;9.77;;;3.80;;
5585;SDS011;2815;54.094;12.112;2023-05-13T07:04:05;7.57;;;3.20;;
5585;SDS011;2815;54.094;12.112;2023-05-13T07:06:33;4.25;;;2.60;;
5585;SDS011;2815;54.094;12.112;2023-05-13T07:09:01;3.30;;;2.10;;
5585;SDS011;2815;54.094;12.112;2023-05-13T07:11:34;4.45;;;2.97;;
5585;SDS011;2815;54.094;12.112;2023-05-13T07:14:02;6.82;;;3.50;;
5585;SDS011;2815;54.094;12.112;2023-05-13T07:16:30;4.35;;;3.00;;
5585;SDS011;2815;54.094;12.112;2023-05-13T07:18:58;8.95;;;3.38;;
5585;SDS011;2815;54.094;12.112;2023-05-13T07:21:28;5.82;;;3.10;;
5585;SDS011;2815;54.094;12.112;2023-05-13T07:23:56;12.57;;;3.58;;
5585;SDS011;2815;54.094;12.112;2023-05-13T07:26:24;4.50;;;3.00;;
5585;SDS011;2815;54.094;12.112;2023-05-13T07:28:52;5.90;;;3.25;;
5585;SDS011;2815;54.094;12.112;2023-05-13T07:31:19;5.85;;;3.47;;
5585;SDS011;2815;54.094;12.112;2023-05-13T07:33:47;6.07;;;3.28;;
5585;SDS011;2815;54.094;12.112;2023-05-13T07:36:15;6.28;;;3.25;;
5585;SDS011;2815;54.094;12.112;2023-05-13T07:38:45;5.85;;;3.03;;
5585;SDS011;2815;54.094;12.112;2023-05-13T07:41:12;7.65;;;3.50;;
5585;SDS011;2815;54.094;12.112;2023-05-13T07:43:40;7.03;;;3.17;;
5585;SDS011;2815;54.094;12.112;2023-05-13T07:46:08;5.20;;;3.20;;
5585;SDS011;2815;54.094;12.112;2023-05-13T07:48:36;8.90;;;3.13;;
5585;SDS011;2815;54.094;12.112;2023-05-13T07:51:04;9.00;;;3.45;;
5585;SDS011;2815;54.094;12.112;2023-05-13T07:53:32;5.43;;;2.78;;
5585;SDS011;2815;54.094;12.112;2023-05-13T07:56:02;4.35;;;3.17;;
5585;SDS011;2815;54.094;12.112;2023-05-13T07:58:30;7.22;;;3.28;;
5585;SDS011;2815;54.094;12.112;2023-05-13T08:00:58;7.25;;;3.20;;
5585;SDS011;2815;54.094;12.112;2023-05-13T08:03:26;6.30;;;3.38;;
5585;SDS011;2815;54.094;12.112;2023-05-13T08:05:54;13.77;;;3.70;;
5585;SDS011;2815;54.094;12.112;2023-05-13T08:08:22;6.53;;;3.40;;
5585;SDS011;2815;54.094;12.112;2023-05-13T08:10:50;4.97;;;2.92;;
5585;SDS011;2815;54.094;12.112;2023-05-13T08:13:19;10.95;;;3.13;;
5585;SDS011;2815;54.094;12.112;2023-05-13T08:15:47;7.28;;;2.97;;
5585;SDS011;2815;54.094;12.112;2023-05-13T08:18:17;5.20;;;2.90;;
5585;SDS011;2815;54.094;12.112;2023-05-13T08:20:45;8.35;;;3.05;;
5585;SDS011;2815;54.094;12.112;2023-05-13T08:23:13;8.18;;;2.85;;
5585;SDS011;2815;54.094;12.112;2023-05-13T08:25:40;4.50;;;2.70;;
5585;SDS011;2815;54.094;12.112;2023-05-13T08:28:08;7.63;;;2.80;;
5585;SDS011;2815;54.094;12.112;2023-05-13T08:30:38;5.68;;;2.65;;
5585;SDS011;2815;54.094;12.112;2023-05-13T08:33:06;6.38;;;2.55;;
5585;SDS011;2815;54.094;12.112;2023-05-13T08:35:34;9.18;;;3.47;;
5585;SDS011;2815;54.094;12.112;2023-05-13T08:38:02;4.03;;;2.60;;
5585;SDS011;2815;54.094;12.112;2023-05-13T08:40:31;5.50;;;2.80;;
5585;SDS011;2815;54.094;12.112;2023-05-13T08:42:59;8.95;;;2.83;;
5585;SDS011;2815;54.094;12.112;2023-05-13T08:45:28;5.32;;;2.60;;
5585;SDS011;2815;54.094;12.112;2023-05-13T08:47:58;3.08;;;1.90;;
5585;SDS011;2815;54.094;12.112;2023-05-13T08:50:28;5.00;;;2.78;;
5585;SDS011;2815;54.094;12.112;2023-05-13T08:52:57;3.92;;;2.78;;
5585;SDS011;2815;54.094;12.112;2023-05-13T08:55:25;4.05;;;2.28;;
5585;SDS011;2815;54.094;12.112;2023-05-13T08:57:54;7.05;;;2.38;;
5585;SDS011;2815;54.094;12.112;2023-05-13T09:00:22;4.60;;;2.45;;
5585;SDS011;2815;54.094;12.112;2023-05-13T09:02:50;4.18;;;2.40;;
5585;SDS011;2815;54.094;12.112;2023-05-13T09:05:19;7.38;;;2.42;;
5585;SDS011;2815;54.094;12.112;2023-05-13T09:07:48;6.63;;;2.63;;
5585;SDS011;2815;54.094;12.112;2023-05-13T09:10:17;5.13;;;2.38;;
5585;SDS011;2815;54.094;12.112;2023-05-13T09:12:47;7.30;;;2.28;;
5585;SDS011;2815;54.094;12.112;2023-05-13T09:15:16;4.53;;;2.20;;
5585;SDS011;2815;54.094;12.112;2023-05-13T09:17:47;5.15;;;2.30;;
5585;SDS011;2815;54.094;12.112;2023-05-13T09:20:15;3.70;;;2.00;;
5585;SDS011;2815;54.094;12.112;2023-05-13T09:22:47;4.45;;;2.50;;
5585;SDS011;2815;54.094;12.112;2023-05-13T09:25:17;10.93;;;2.58;;
5585;SDS011;2815;54.094;12.112;2023-05-13T09:27:46;6.93;;;2.30;;
5585;SDS011;2815;54.094;12.112;2023-05-13T09:30:15;5.38;;;2.20;;
5585;SDS011;2815;54.094;12.112;2023-05-13T09:32:43;3.60;;;2.40;;
5585;SDS011;2815;54.094;12.112;2023-05-13T09:35:12;6.82;;;3.08;;
5585;SDS011;2815;54.094;12.112;2023-05-13T09:37:43;4.30;;;2.08;;
5585;SDS011;2815;54.094;12.112;2023-05-13T09:40:14;4.30;;;2.45;;
5585;SDS011;2815;54.094;12.112;2023-05-13T09:42:43;7.38;;;2.42;;
5585;SDS011;2815;54.094;12.112;2023-05-13T09:45:12;5.32;;;2.42;;
5585;SDS011;2815;54.094;12.112;2023-05-13T09:47:40;4.47;;;2.17;;
5585;SDS011;2815;54.094;12.112;2023-05-13T09:50:10;7.90;;;2.30;;
5585;SDS011;2815;54.094;12.112;2023-05-13T09:52:38;5.10;;;2.10;;
5585;SDS011;2815;54.094;12.112;2023-05-13T09:55:07;5.75;;;2.15;;
5585;SDS011;2815;54.094;12.112;2023-05-13T09:57:37;3.33;;;1.77;;
5585;SDS011;2815;54.094;12.112;2023-05-13T10:00:06;4.28;;;2.00;;
5585;SDS011;2815;54.094;12.112;2023-05-13T10:02:50;7.50;;;2.40;;
5585;SDS011;2815;54.094;12.112;2023-05-13T10:05:18;3.55;;;2.17;;
5585;SDS011;2815;54.094;12.112;2023-05-13T10:07:46;6.57;;;2.00;;
5585;SDS011;2815;54.094;12.112;2023-05-13T10:10:14;4.03;;;1.70;;
5585;SDS011;2815;54.094;12.112;2023-05-13T10:12:43;4.03;;;2.00;;
5585;SDS011;2815;54.094;12.112;2023-05-13T10:15:11;5.38;;;1.73;;
5585;SDS011;2815;54.094;12.112;2023-05-13T10:17:39;3.42;;;2.17;;
5585;SDS011;2815;54.094;12.112;2023-05-13T10:20:08;4.38;;;2.38;;
5585;SDS011;2815;54.094;12.112;2023-05-13T10:22:36;3.67;;;2.30;;
5585;SDS011;2815;54.094;12.112;2023-05-13T10:25:04;3.13;;;2.20;;
5585;SDS011;2815;54.094;12.112;2023-05-13T10:27:34;5.78;;;2.10;;
5585;SDS011;2815;54.094;12.112;2023-05-13T10:30:03;5.80;;;2.20;;
5585;SDS011;2815;54.094;12.112;2023-05-13T10:32:35;6.63;;;2.30;;
5585;SDS011;2815;54.094;12.112;2023-05-13T10:35:06;2.92;;;1.90;;
5585;SDS011;2815;54.094;12.112;2023-05-13T10:40:42;7.72;;;2.25;;
5585;SDS011;2815;54.094;12.112;2023-05-13T10:43:22;7.75;;;2.10;;
5585;SDS011;2815;54.094;12.112;2023-05-13T10:45:55;4.65;;;2.30;;
5585;SDS011;2815;54.094;12.112;2023-05-13T10:48:25;8.02;;;2.10;;
5585;SDS011;2815;54.094;12.112;2023-05-13T10:50:54;5.50;;;1.67;;
5585;SDS011;2815;54.094;12.112;2023-05-13T10:53:23;5.30;;;2.13;;
5585;SDS011;2815;54.094;12.112;2023-05-13T10:55:52;5.35;;;2.10;;
5585;SDS011;2815;54.094;12.112;2023-05-13T10:58:27;3.38;;;1.92;;
5585;SDS011;2815;54.094;12.112;2023-05-13T11:03:53;7.05;;;2.65;;
5585;SDS011;2815;54.094;12.112;2023-05-13T11:06:22;3.80;;;2.05;;
5585;SDS011;2815;54.094;12.112;2023-05-13T11:08:52;3.65;;;2.05;;
5585;SDS011;2815;54.094;12.112;2023-05-13T11:11:26;5.15;;;2.15;;
5585;SDS011;2815;54.094;12.112;2023-05-13T11:14:02;5.78;;;1.83;;
5585;SDS011;2815;54.094;12.112;2023-05-13T11:16:34;6.75;;;2.15;;
5585;SDS011;2815;54.094;12.112;2023-05-13T11:19:07;4.85;;;2.15;;
5585;SDS011;2815;54.094;12.112;2023-05-13T11:21:36;3.88;;;2.10;;
5585;SDS011;2815;54.094;12.112;2023-05-13T11:24:06;6.35;;;2.45;;
5585;SDS011;2815;54.094;12.112;2023-05-13T11:26:44;4.60;;;2.17;;
5585;SDS011;2815;54.094;12.112;2023-05-13T11:29:13;5.50;;;2.08;;
5585;SDS011;2815;54.094;12.112;2023-05-13T11:31:42;4.65;;;2.20;;
5585;SDS011;2815;54.094;12.112;2023-05-13T11:34:15;4.07;;;2.20;;
5585;SDS011;2815;54.094;12.112;2023-05-13T11:36:44;4.80;;;2.00;;
5585;SDS011;2815;54.094;12.112;2023-05-13T11:39:14;3.55;;;1.67;;
5585;SDS011;2815;54.094;12.112;2023-05-13T11:41:44;3.90;;;1.90;;
5585;SDS011;2815;54.094;12.112;2023-05-13T11:44:13;4.75;;;2.40;;
5585;SDS011;2815;54.094;12.112;2023-05-13T11:46:51;5.65;;;1.98;;
5585;SDS011;2815;54.094;12.112;2023-05-13T11:49:34;4.10;;;2.17;;
5585;SDS011;2815;54.094;12.112;2023-05-13T11:52:05;6.68;;;1.90;;
5585;SDS011;2815;54.094;12.112;2023-05-13T11:54:40;2.25;;;1.80;;
5585;SDS011;2815;54.094;12.112;2023-05-13T11:57:19;4.22;;;2.05;;
5585;SDS011;2815;54.094;12.112;2023-05-13T11:59:49;5.63;;;2.20;;
5585;SDS011;2815;54.094;12.112;2023-05-13T12:02:21;4.22;;;2.10;;
5585;SDS011;2815;54.094;12.112;2023-05-13T12:04:51;4.05;;;2.20;;
5585;SDS011;2815;54.094;12.112;2023-05-13T12:07:20;2.67;;;1.85;;
5585;SDS011;2815;54.094;12.112;2023-05-13T12:09:49;3.72;;;1.70;;
5585;SDS011;2815;54.094;12.112;2023-05-13T12:12:17;2.65;;;1.80;;
5585;SDS011;2815;54.094;12.112;2023-05-13T12:14:46;4.97;;;1.98;;
5585;SDS011;2815;54.094;12.112;2023-05-13T12:17:16;3.97;;;2.10;;
5585;SDS011;2815;54.094;12.112;2023-05-13T12:22:48;2.13;;;1.30;;
5585;SDS011;2815;54.094;12.112;2023-05-13T12:25:31;5.60;;;1.90;;
5585;SDS011;2815;54.094;12.112;2023-05-13T12:28:06;4.05;;;1.83;;
5585;SDS011;2815;54.094;12.112;2023-05-13T12:33:03;6.55;;;1.90;;
5585;SDS011;2815;54.094;12.112;2023-05-13T12:35:33;3.53;;;2.17;;
5585;SDS011;2815;54.094;12.112;2023-05-13T12:38:01;2.85;;;1.88;;
5585;SDS011;2815;54.094;12.112;2023-05-13T12:40:30;3.67;;;2.30;;
5585;SDS011;2815;54.094;12.112;2023-05-13T12:42:59;9.82;;;2.03;;
5585;SDS011;2815;54.094;12.112;2023-05-13T12:45:27;3.17;;;1.92;;
5585;SDS011;2815;54.094;12.112;2023-05-13T12:47:57;5.50;;;2.00;;
5585;SDS011;2815;54.094;12.112;2023-05-13T12:50:25;7.32;;;2.25;;
5585;SDS011;2815;54.094;12.112;2023-05-13T12:52:55;3.92;;;1.92;;
5585;SDS011;2815;54.094;12.112;2023-05-13T12:55:25;3.60;;;1.65;;
5585;SDS011;2815;54.094;12.112;2023-05-13T12:57:54;1.92;;;1.50;;
5585;SDS011;2815;54.094;12.112;2023-05-13T13:00:22;5.53;;;1.95;;
5585;SDS011;2815;54.094;12.112;2023-05-13T13:02:51;5.05;;;2.13;;
5585;SDS011;2815;54.094;12.112;2023-05-13T13:05:19;4.32;;;1.90;;
5585;SDS011;2815;54.094;12.112;2023-05-13T13:07:48;4.45;;;1.90;;
5585;SDS011;2815;54.094;12.112;2023-05-13T13:10:17;4.10;;;1.83;;
5585;SDS011;2815;54.094;12.112;2023-05-13T13:12:45;2.92;;;1.50;;
5585;SDS011;2815;54.094;12.112;2023-05-13T13:15:14;5.30;;;1.70;;
5585;SDS011;2815;54.094;12.112;2023-05-13T13:17:43;5.03;;;1.80;;
5585;SDS011;2815;54.094;12.112;2023-05-13T13:20:11;2.65;;;2.00;;
5585;SDS011;2815;54.094;12.112;2023-05-13T13:22:39;2.50;;;1.80;;
5585;SDS011;2815;54.094;12.112;2023-05-13T13:25:07;5.97;;;1.98;;
5585;SDS011;2815;54.094;12.112;2023-05-13T13:27:36;4.97;;;1.88;;
5585;SDS011;2815;54.094;12.112;2023-05-13T13:30:04;5.97;;;2.00;;
5585;SDS011;2815;54.094;12.112;2023-05-13T13:32:34;3.28;;;1.83;;
5585;SDS011;2815;54.094;12.112;2023-05-13T13:35:02;3.42;;;1.80;;
5585;SDS011;2815;54.094;12.112;2023-05-13T13:37:31;2.35;;;1.90;;
5585;SDS011;2815;54.094;12.112;2023-05-13T13:40:01;3.22;;;2.00;;
5585;SDS011;2815;54.094;12.112;2023-05-13T13:42:29;3.33;;;1.75;;
5585;SDS011;2815;54.094;12.112;2023-05-13T13:45:11;2.70;;;1.80;;
5585;SDS011;2815;54.094;12.112;2023-05-13T13:47:40;3.05;;;1.98;;
5585;SDS011;2815;54.094;12.112;2023-05-13T13:50:08;8.43;;;2.30;;
5585;SDS011;2815;54.094;12.112;2023-05-13T13:52:36;3.88;;;2.15;;
5585;SDS011;2815;54.094;12.112;2023-05-13T13:55:05;4.10;;;1.73;;
5585;SDS011;2815;54.094;12.112;2023-05-13T13:57:37;6.22;;;1.92;;
5585;SDS011;2815;54.094;12.112;2023-05-13T14:00:05;7.47;;;2.03;;
5585;SDS011;2815;54.094;12.112;2023-05-13T14:02:35;3.60;;;1.88;;
5585;SDS011;2815;54.094;12.112;2023-05-13T14:05:04;3.58;;;1.55;;
5585;SDS011;2815;54.094;12.112;2023-05-13T14:07:32;4.32;;;1.90;;
5585;SDS011;2815;54.094;12.112;2023-05-13T14:10:01;2.55;;;1.85;;
5585;SDS011;2815;54.094;12.112;2023-05-13T14:12:29;3.97;;;1.85;;
5585;SDS011;2815;54.094;12.112;2023-05-13T14:14:57;3.42;;;2.00;;
5585;SDS011;2815;54.094;12.112;2023-05-13T14:17:25;5.50;;;2.20;;
5585;SDS011;2815;54.094;12.112;2023-05-13T14:19:56;9.60;;;2.25;;
5585;SDS011;2815;54.094;12.112;2023-05-13T14:22:25;5.25;;;1.98;;
5585;SDS011;2815;54.094;12.112;2023-05-13T14:24:52;5.22;;;2.47;;
5585;SDS011;2815;54.094;12.112;2023-05-13T14:27:20;3.90;;;2.10;;
5585;SDS011;2815;54.094;12.112;2023-05-13T14:29:50;5.25;;;2.20;;
5585;SDS011;2815;54.094;12.112;2023-05-13T14:32:18;3.28;;;2.25;;
5585;SDS011;2815;54.094;12.112;2023-05-13T14:34:46;2.78;;;1.67;;
5585;SDS011;2815;54.094;12.112;2023-05-13T14:37:15;4.00;;;1.90;;
5585;SDS011;2815;54.094;12.112;2023-05-13T14:39:43;1.85;;;1.48;;
5585;SDS011;2815;54.094;12.112;2023-05-13T14:42:15;2.88;;;1.55;;
5585;SDS011;2815;54.094;12.112;2023-05-13T14:44:43;3.60;;;2.15;;
5585;SDS011;2815;54.094;12.112;2023-05-13T14:47:11;2.65;;;1.80;;
5585;SDS011;2815;54.094;12.112;2023-05-13T14:49:39;3.97;;;2.45;;
5585;SDS011;2815;54.094;12.112;2023-05-13T14:52:08;2.78;;;1.77;;
5585;SDS011;2815;54.094;12.112;2023-05-13T14:54:38;4.55;;;2.40;;
5585;SDS011;2815;54.094;12.112;2023-05-13T14:57:06;6.72;;;2.38;;
5585;SDS011;2815;54.094;12.112;2023-05-13T14:59:34;3.40;;;2.10;;
5585;SDS011;2815;54.094;12.112;2023-05-13T15:02:02;4.35;;;2.20;;
5585;SDS011;2815;54.094;12.112;2023-05-13T15:04:30;2.90;;;2.10;;
5585;SDS011;2815;54.094;12.112;2023-05-13T15:07:00;5.35;;;2.10;;
5585;SDS011;2815;54.094;12.112;2023-05-13T15:09:28;3.75;;;2.20;;
5585;SDS011;2815;54.094;12.112;2023-05-13T15:11:57;6.28;;;2.00;;
5585;SDS011;2815;54.094;12.112;2023-05-13T15:14:25;6.03;;;2.30;;
5585;SDS011;2815;54.094;12.112;2023-05-13T15:16:53;3.50;;;2.50;;
5585;SDS011;2815;54.094;12.112;2023-05-13T15:19:21;5.45;;;2.28;;
5585;SDS011;2815;54.094;12.112;2023-05-13T15:21:49;3.33;;;2.22;;
5585;SDS011;2815;54.094;12.112;2023-05-13T15:24:17;3.45;;;1.90;;